Terminal Aerodrome Forecast
Issued by NWS Upton, NY

Home | Current Version | Previous Version | Text Only | Print | Product List | Glossary On
Versions: 1 2 3 4 5 6 7 8 9 10 11 12 13 14 15 16 17 18 19 20 21 22 23 24 25 26
000
FTUS41 KOKX 192338
TAFBDR
TAF
KBDR 192338Z 2000/2024 13012KT P6SM OVC200
     FM200800 09014G21KT P6SM OVC120
     FM201000 10021G28KT 6SM -RA BKN025 OVC100 WS020/12040KT
     FM201500 11023G29KT 2SM RA BR OVC009 WS020/12050KT
     FM202100 12012KT 1SM -RA BR OVC009=

USA.gov is the U.S. government's official web portal to all federal, state and local government web resources and services.